createdAt,value
2018-05-31T00:01:57.293Z,137.47
2018-05-31T00:04:23.437Z,145.40
2018-05-31T00:06:49.461Z,135.03
2018-05-31T00:09:15.560Z,136.87
2018-05-31T00:11:41.789Z,128.73
2018-05-31T00:14:07.821Z,124.07
2018-05-31T00:16:33.857Z,131.07
2018-05-31T00:18:59.878Z,126.93
2018-05-31T00:21:25.900Z,117.63
2018-05-31T00:23:51.925Z,125.83
2018-05-31T00:26:17.934Z,125.60
2018-05-31T00:28:43.957Z,116.07
2018-05-31T00:31:09.996Z,124.07
2018-05-31T00:33:36.017Z,101.40
2018-05-31T00:36:02.037Z,95.70
2018-05-31T00:38:28.071Z,87.53
2018-05-31T00:40:54.082Z,91.33
2018-05-31T00:43:20.109Z,79.07
2018-05-31T00:45:46.174Z,79.00
2018-05-31T00:48:12.198Z,76.30
2018-05-31T00:50:38.231Z,72.77
2018-05-31T00:53:04.262Z,75.47
2018-05-31T00:55:42.733Z,71.13
2018-05-31T00:58:12.051Z,79.80
2018-05-31T01:00:38.116Z,75.20
2018-05-31T01:03:04.138Z,73.13
2018-05-31T01:05:30.190Z,91.80
2018-05-31T01:07:56.238Z,72.70
2018-05-31T01:10:22.267Z,90.40
2018-05-31T01:12:48.324Z,89.93
2018-05-31T01:15:14.696Z,82.73
2018-05-31T01:17:41.061Z,81.60
2018-05-31T01:20:07.404Z,85.93
2018-05-31T01:22:33.433Z,99.63
2018-05-31T01:24:59.491Z,105.27
2018-05-31T01:27:25.536Z,113.83
2018-05-31T01:29:51.578Z,115.13
2018-05-31T01:32:17.615Z,121.70
2018-05-31T01:34:43.638Z,147.30
2018-05-31T01:37:09.884Z,128.07
2018-05-31T01:39:35.962Z,138.30
2018-05-31T01:42:02.011Z,157.63
2018-05-31T01:44:28.369Z,156.13
2018-05-31T01:46:57.152Z,150.90
2018-05-31T01:49:23.184Z,158.93
2018-05-31T01:51:49.254Z,153.50
2018-05-31T01:54:15.327Z,174.73
2018-05-31T01:56:41.350Z,194.37
2018-05-31T01:59:07.407Z,177.10
2018-05-31T02:01:33.586Z,187.77
2018-05-31T02:03:59.630Z,190.97
2018-05-31T02:06:25.712Z,233.30
2018-05-31T02:08:51.735Z,193.70
2018-05-31T02:11:17.785Z,185.97
2018-05-31T02:13:43.789Z,181.23
2018-05-31T02:16:09.800Z,168.17
2018-05-31T02:18:35.852Z,189.20
2018-05-31T02:21:01.894Z,209.57
2018-05-31T02:23:27.939Z,161.87
2018-05-31T02:25:53.961Z,207.60
2018-05-31T02:28:20.015Z,220.70
2018-05-31T02:30:46.044Z,208.17
2018-05-31T02:33:12.062Z,196.80
2018-05-31T02:35:38.062Z,199.87
2018-05-31T02:38:04.106Z,224.33
2018-05-31T02:40:30.111Z,228.63
2018-05-31T02:42:56.135Z,250.13
2018-05-31T02:45:23.655Z,211.67
2018-05-31T02:47:49.693Z,225.37
2018-05-31T02:50:15.716Z,231.67
2018-05-31T02:52:41.803Z,215.70
2018-05-31T02:55:07.865Z,283.90
2018-05-31T02:57:33.884Z,256.97
2018-05-31T02:59:59.941Z,268.00
2018-05-31T03:02:25.963Z,274.37
2018-05-31T03:04:52.000Z,259.53
2018-05-31T03:07:18.030Z,245.27
2018-05-31T03:09:44.052Z,285.47
2018-05-31T03:12:10.144Z,242.60
2018-05-31T03:14:36.147Z,296.40
2018-05-31T03:17:02.133Z,290.20
2018-05-31T03:19:28.156Z,282.37
2018-05-31T03:21:54.169Z,252.17
2018-05-31T03:24:20.186Z,280.17
2018-05-31T03:26:46.263Z,305.13
2018-05-31T03:29:12.285Z,291.57
2018-05-31T03:31:38.297Z,313.83
2018-05-31T03:34:04.357Z,277.83
2018-05-31T03:36:30.399Z,297.07
2018-05-31T03:38:56.430Z,310.03
2018-05-31T03:41:22.464Z,316.00
2018-05-31T03:43:48.569Z,319.00
2018-05-31T03:46:14.647Z,308.87
2018-05-31T03:48:40.674Z,277.27
2018-05-31T03:51:06.782Z,282.13
2018-05-31T03:53:32.847Z,294.57
2018-05-31T03:55:58.892Z,312.40
2018-05-31T03:58:25.090Z,312.33
2018-05-31T04:00:51.258Z,278.10
2018-05-31T04:03:17.344Z,298.87
2018-05-31T04:05:43.363Z,306.17
2018-05-31T04:08:09.398Z,309.43
2018-05-31T04:10:36.221Z,302.17
2018-05-31T04:13:02.251Z,263.27
2018-05-31T04:15:28.921Z,297.77
2018-05-31T04:17:55.211Z,285.50
2018-05-31T04:20:21.343Z,236.03
2018-05-31T04:22:47.457Z,249.33
2018-05-31T04:25:13.485Z,276.23
2018-05-31T04:27:46.537Z,276.97
2018-05-31T04:30:12.701Z,275.90
2018-05-31T04:32:38.837Z,270.37
2018-05-31T04:35:05.370Z,247.57
2018-05-31T04:37:31.654Z,262.90
2018-05-31T04:39:57.676Z,223.87
2018-05-31T04:42:23.759Z,230.10
2018-05-31T04:44:49.823Z,252.67
2018-05-31T04:47:15.906Z,246.50
2018-05-31T04:49:41.995Z,237.90
2018-05-31T04:52:08.041Z,247.93
2018-05-31T04:54:34.087Z,245.63
2018-05-31T04:57:00.134Z,237.70
2018-05-31T04:59:26.297Z,241.00
2018-05-31T05:01:52.520Z,261.17
2018-05-31T05:04:18.567Z,243.33
2018-05-31T05:06:44.583Z,248.07
2018-05-31T05:09:10.602Z,243.83
2018-05-31T05:11:36.712Z,222.77
2018-05-31T05:14:02.855Z,205.23
2018-05-31T05:16:29.173Z,225.87
2018-05-31T05:18:55.423Z,219.47
2018-05-31T05:21:21.430Z,225.43
2018-05-31T05:23:47.487Z,229.30
2018-05-31T05:26:13.669Z,221.77
2018-05-31T05:28:39.702Z,223.93
2018-05-31T05:31:05.768Z,221.67
2018-05-31T05:33:31.786Z,216.67
2018-05-31T05:35:57.894Z,200.83
2018-05-31T05:38:23.916Z,208.73
2018-05-31T05:40:49.948Z,210.93
2018-05-31T05:43:15.991Z,186.43
2018-05-31T05:45:42.036Z,201.23
2018-05-31T05:48:08.142Z,185.03
2018-05-31T05:50:34.201Z,181.50
2018-05-31T05:53:00.250Z,192.83
2018-05-31T05:55:26.355Z,181.17
2018-05-31T05:57:52.358Z,189.33
2018-05-31T06:00:18.429Z,177.80
2018-05-31T06:02:44.450Z,177.50
2018-05-31T06:05:10.522Z,170.90
2018-05-31T06:07:36.572Z,184.00
2018-05-31T06:10:02.731Z,174.67
2018-05-31T06:12:29.211Z,172.80
2018-05-31T06:14:55.334Z,155.30
2018-05-31T06:17:21.417Z,161.03
2018-05-31T06:19:47.465Z,155.17
2018-05-31T06:22:13.642Z,158.37
2018-05-31T06:24:39.807Z,159.17
2018-05-31T06:27:05.785Z,156.40
2018-05-31T06:29:31.814Z,154.07
2018-05-31T06:31:57.864Z,145.87
2018-05-31T06:34:23.899Z,155.30
2018-05-31T06:36:49.938Z,154.07
2018-05-31T06:39:16.018Z,149.70
2018-05-31T06:41:42.053Z,145.80
2018-05-31T06:44:08.074Z,148.87
2018-05-31T06:46:34.104Z,144.97
2018-05-31T06:49:00.106Z,141.50
2018-05-31T06:51:26.135Z,140.90
2018-05-31T06:53:52.217Z,134.10
2018-05-31T06:56:18.262Z,140.07
2018-05-31T06:58:44.282Z,128.70
2018-05-31T07:01:10.330Z,126.77
2018-05-31T07:03:36.428Z,125.20
2018-05-31T07:06:02.498Z,133.40
2018-05-31T07:08:28.503Z,127.30
2018-05-31T07:10:54.530Z,121.50
2018-05-31T07:13:20.575Z,123.10
2018-05-31T07:15:46.910Z,119.40
2018-05-31T07:18:13.054Z,117.43
2018-05-31T07:20:39.078Z,122.90
2018-05-31T07:23:05.148Z,120.50
2018-05-31T07:25:31.235Z,120.67
2018-05-31T07:27:57.354Z,120.87
2018-05-31T07:30:23.395Z,130.17
2018-05-31T07:32:49.482Z,131.20
2018-05-31T07:35:15.565Z,122.43
2018-05-31T07:37:41.670Z,128.13
2018-05-31T07:40:07.700Z,127.07
2018-05-31T07:42:33.763Z,121.70
2018-05-31T07:44:59.834Z,121.87
2018-05-31T07:47:25.862Z,125.60
2018-05-31T07:49:51.914Z,119.37
2018-05-31T07:52:17.979Z,122.57
2018-05-31T07:54:44.008Z,124.27
2018-05-31T07:57:10.028Z,119.47
2018-05-31T07:59:36.053Z,109.20
2018-05-31T08:02:02.113Z,106.33
2018-05-31T08:04:28.990Z,100.77
2018-05-31T08:06:55.229Z,105.13
2018-05-31T08:09:21.444Z,104.07
2018-05-31T08:11:47.450Z,101.63
2018-05-31T08:14:13.484Z,104.97
2018-05-31T08:16:40.487Z,106.13
2018-05-31T08:19:06.509Z,103.47
2018-05-31T08:21:32.531Z,102.27
2018-05-31T08:23:58.553Z,103.33
2018-05-31T08:26:24.621Z,97.47
2018-05-31T08:28:51.036Z,100.57
2018-05-31T08:31:17.199Z,102.23
2018-05-31T08:33:43.390Z,100.00
2018-05-31T08:36:09.405Z,102.43
2018-05-31T08:38:35.429Z,99.00
2018-05-31T08:41:01.545Z,103.10
2018-05-31T08:43:27.694Z,106.73
2018-05-31T08:45:53.718Z,129.37
2018-05-31T08:48:19.750Z,128.93
2018-05-31T08:50:45.795Z,108.17
2018-05-31T08:53:11.825Z,107.13
2018-05-31T08:55:37.857Z,103.77
2018-05-31T08:58:03.897Z,107.83
2018-05-31T09:00:30.086Z,123.03
2018-05-31T09:02:56.101Z,76.13
2018-05-31T09:05:22.132Z,29.87
2018-05-31T09:44:32.378Z,82.20
2018-05-31T09:46:58.412Z,88.63
2018-05-31T09:49:24.445Z,91.67
2018-05-31T09:51:50.427Z,71.00
2018-05-31T09:54:16.985Z,69.33
2018-05-31T09:56:43.059Z,65.93
2018-05-31T09:59:09.059Z,64.53
2018-05-31T10:01:35.118Z,83.13
2018-05-31T10:04:01.151Z,78.23
2018-05-31T10:06:27.139Z,67.67
2018-05-31T10:08:53.271Z,48.53
2018-05-31T10:11:19.294Z,56.10
2018-05-31T10:13:45.402Z,61.37
2018-05-31T10:16:12.029Z,87.67
2018-05-31T10:18:38.013Z,97.97
2018-05-31T10:21:04.000Z,82.20
2018-05-31T10:23:30.003Z,105.87
2018-05-31T10:25:55.946Z,110.27
2018-05-31T10:28:21.927Z,98.47
2018-05-31T10:30:47.935Z,84.97
2018-05-31T10:33:13.962Z,77.27
2018-05-31T10:35:39.987Z,81.33
2018-05-31T10:38:05.978Z,69.07
2018-05-31T10:40:32.020Z,54.17
2018-05-31T10:42:58.055Z,45.60
2018-05-31T10:45:24.029Z,43.27
2018-05-31T10:47:50.066Z,41.07
2018-05-31T10:50:16.104Z,32.67
2018-05-31T10:52:42.202Z,24.13
2018-05-31T10:55:08.214Z,26.57
2018-05-31T10:57:34.266Z,17.07
2018-05-31T11:00:00.247Z,19.03
2018-05-31T11:02:26.241Z,14.83
2018-05-31T11:04:52.240Z,15.07
2018-05-31T11:07:18.255Z,15.93
2018-05-31T11:09:44.270Z,17.63
2018-05-31T11:12:10.262Z,15.27
2018-05-31T11:14:36.237Z,13.53
2018-05-31T11:17:02.240Z,10.87
2018-05-31T11:19:28.229Z,14.97
2018-05-31T11:21:54.257Z,14.57
2018-05-31T11:24:20.275Z,12.67
2018-05-31T11:26:46.270Z,16.33
2018-05-31T11:29:12.277Z,10.43
2018-05-31T11:31:38.213Z,13.97
2018-05-31T11:34:04.253Z,10.53
2018-05-31T11:36:30.389Z,8.43
2018-05-31T11:38:56.457Z,6.60
2018-05-31T11:41:22.422Z,6.43
2018-05-31T11:43:48.397Z,7.23
2018-05-31T11:46:14.394Z,8.53
2018-05-31T11:48:40.402Z,5.30
2018-05-31T11:51:06.397Z,9.63
2018-05-31T11:53:32.451Z,6.03
2018-05-31T11:55:58.470Z,5.90
2018-05-31T11:58:24.462Z,6.57
2018-05-31T12:00:50.490Z,6.17
2018-05-31T12:03:16.483Z,6.70
2018-05-31T12:05:42.452Z,6.40
2018-05-31T12:08:08.518Z,6.20
2018-05-31T12:10:34.569Z,8.27
2018-05-31T12:13:00.580Z,5.13
2018-05-31T12:15:26.553Z,7.17
2018-05-31T12:17:52.573Z,4.90
2018-05-31T12:20:18.576Z,5.37
2018-05-31T12:22:44.612Z,6.03
2018-05-31T12:25:10.645Z,5.00
2018-05-31T12:27:36.974Z,5.70
2018-05-31T12:30:03.100Z,10.73
2018-05-31T12:32:29.114Z,3.53
2018-05-31T12:34:55.142Z,6.23
2018-05-31T12:37:21.257Z,6.40
2018-05-31T12:39:47.299Z,6.37
2018-05-31T12:42:13.311Z,4.53
2018-05-31T12:44:39.300Z,3.63
2018-05-31T12:47:05.437Z,6.07
2018-05-31T12:49:31.973Z,5.40
2018-05-31T12:51:57.977Z,3.60
2018-05-31T12:54:23.975Z,4.60
2018-05-31T12:56:49.970Z,5.20
2018-05-31T12:59:15.971Z,4.50
2018-05-31T13:01:41.981Z,7.30
2018-05-31T13:04:08.001Z,6.60
2018-05-31T13:06:33.997Z,6.07
2018-05-31T13:09:00.018Z,4.40
2018-05-31T13:14:02.156Z,3.77
2018-05-31T13:19:01.620Z,4.82
2018-05-31T13:21:27.705Z,5.60
2018-05-31T13:23:53.833Z,5.00
2018-05-31T13:26:20.025Z,6.28
2018-05-31T13:28:46.051Z,5.40
2018-05-31T13:31:12.110Z,4.30
2018-05-31T13:33:38.164Z,5.13
2018-05-31T13:36:04.213Z,5.18
2018-05-31T13:38:30.232Z,5.53
2018-05-31T13:40:56.238Z,5.82
2018-05-31T13:43:22.262Z,5.07
2018-05-31T13:45:48.304Z,4.57
2018-05-31T13:48:14.462Z,5.47
2018-05-31T13:50:40.518Z,6.67
2018-05-31T13:53:06.544Z,4.00
2018-05-31T13:55:32.570Z,6.70
2018-05-31T13:57:58.626Z,4.67
2018-05-31T14:00:24.720Z,5.90
2018-05-31T14:02:50.756Z,4.67
2018-05-31T14:05:16.810Z,5.47
2018-05-31T14:07:42.999Z,6.23
2018-05-31T14:10:09.051Z,7.40
2018-05-31T14:12:35.158Z,4.13
2018-05-31T14:15:01.217Z,6.10
2018-05-31T14:17:27.341Z,3.83
2018-05-31T14:19:53.500Z,5.80
2018-05-31T14:22:20.332Z,8.63
2018-05-31T14:24:46.420Z,6.93
2018-05-31T14:27:12.716Z,4.60
2018-05-31T14:29:38.758Z,5.87
2018-05-31T14:32:04.791Z,4.90
2018-05-31T14:34:30.906Z,5.23
2018-05-31T14:36:56.966Z,6.70
2018-05-31T14:39:23.023Z,5.60
2018-05-31T14:41:50.158Z,5.63
2018-05-31T14:44:16.266Z,8.37
2018-05-31T14:46:42.287Z,6.03
2018-05-31T14:49:08.364Z,4.27
2018-05-31T14:51:34.360Z,5.23
2018-05-31T14:54:00.574Z,6.70
2018-05-31T14:56:26.621Z,5.63
2018-05-31T14:58:52.657Z,6.40
2018-05-31T15:01:18.668Z,5.33
2018-05-31T15:03:44.739Z,6.17
2018-05-31T15:06:10.816Z,6.67
2018-05-31T15:08:36.846Z,5.40
2018-05-31T15:11:02.865Z,5.43
2018-05-31T15:13:29.133Z,5.93
2018-05-31T15:15:55.658Z,6.90
2018-05-31T15:18:29.006Z,9.07
2018-05-31T15:20:55.060Z,6.47
2018-05-31T15:23:21.103Z,6.23
2018-05-31T15:25:47.399Z,8.60
2018-05-31T15:28:13.560Z,5.90
2018-05-31T15:30:39.783Z,8.33
2018-05-31T15:33:05.832Z,6.43
2018-05-31T15:35:31.893Z,10.33
2018-05-31T15:37:58.002Z,6.67
2018-05-31T15:40:24.027Z,8.03
2018-05-31T15:42:50.087Z,8.97
2018-05-31T15:45:16.130Z,6.97
2018-05-31T15:47:42.186Z,7.80
2018-05-31T15:50:08.222Z,7.63
2018-05-31T15:52:34.531Z,8.33
2018-05-31T15:55:00.575Z,5.30
2018-05-31T15:57:26.571Z,8.27
2018-05-31T15:59:52.593Z,7.43
2018-05-31T16:02:18.620Z,11.13
2018-05-31T16:04:44.699Z,6.27
2018-05-31T16:07:10.736Z,7.40
2018-05-31T16:09:36.758Z,6.83
2018-05-31T16:12:03.631Z,6.57
2018-05-31T16:14:29.730Z,6.77
2018-05-31T16:16:55.756Z,6.97
2018-05-31T16:19:22.769Z,6.13
2018-05-31T16:21:48.973Z,7.07
2018-05-31T16:24:15.189Z,6.63
2018-05-31T16:26:41.225Z,7.00
2018-05-31T16:29:07.253Z,7.50
2018-05-31T16:31:33.359Z,7.97
2018-05-31T16:33:59.459Z,9.90
2018-05-31T16:36:25.530Z,8.50
2018-05-31T16:38:51.590Z,9.13
2018-05-31T16:41:17.641Z,8.30
2018-05-31T16:43:43.910Z,8.73
2018-05-31T16:46:09.890Z,8.27
2018-05-31T16:48:36.063Z,8.47
2018-05-31T16:51:02.092Z,8.37
2018-05-31T16:53:28.179Z,8.40
2018-05-31T16:55:54.187Z,7.93
2018-05-31T16:58:20.192Z,7.83
2018-05-31T17:00:46.202Z,7.03
2018-05-31T17:03:12.228Z,10.13
2018-05-31T17:05:38.271Z,9.87
2018-05-31T17:08:04.330Z,9.50
2018-05-31T17:10:30.331Z,9.47
2018-05-31T17:12:56.416Z,8.90
2018-05-31T17:15:22.441Z,9.93
2018-05-31T17:17:48.434Z,10.20
2018-05-31T17:20:14.499Z,8.57
2018-05-31T17:22:40.564Z,8.43
2018-05-31T17:25:06.573Z,8.43
2018-05-31T17:27:32.606Z,8.43
2018-05-31T17:29:58.611Z,7.70
2018-05-31T17:32:24.618Z,9.03
2018-05-31T17:34:50.625Z,10.67
2018-05-31T17:37:16.627Z,11.40
2018-05-31T17:39:42.638Z,8.93
2018-05-31T17:42:08.661Z,8.83
2018-05-31T17:44:34.830Z,8.73
2018-05-31T17:47:00.846Z,7.30
2018-05-31T17:49:26.836Z,7.80
2018-05-31T17:51:53.127Z,8.20
2018-05-31T17:54:19.378Z,9.97
2018-05-31T17:56:45.406Z,7.87
2018-05-31T17:59:11.877Z,8.37
2018-05-31T18:01:37.919Z,9.07
2018-05-31T18:04:03.940Z,9.27
2018-05-31T18:06:30.482Z,11.43
2018-05-31T18:08:56.520Z,9.63
2018-05-31T18:11:22.552Z,7.30
2018-05-31T18:13:48.580Z,7.43
2018-05-31T18:16:14.672Z,7.63
2018-05-31T18:18:40.736Z,10.13
2018-05-31T18:21:06.794Z,9.30
2018-05-31T18:23:33.464Z,8.40
2018-05-31T18:25:59.637Z,8.00
2018-05-31T18:28:26.549Z,10.10
2018-05-31T18:30:52.583Z,8.67
2018-05-31T18:33:18.599Z,9.33
2018-05-31T18:35:44.639Z,9.03
2018-05-31T18:38:10.682Z,9.53
2018-05-31T18:40:36.770Z,8.90
2018-05-31T18:47:35.929Z,17.43
2018-05-31T18:50:01.962Z,18.37
2018-05-31T18:52:28.008Z,18.20
2018-05-31T18:54:54.078Z,18.57
2018-05-31T18:57:20.115Z,18.80
2018-05-31T18:59:46.169Z,18.63
2018-05-31T19:02:12.378Z,18.63
2018-05-31T19:04:38.694Z,17.63
2018-05-31T19:07:04.724Z,17.47
2018-05-31T19:09:33.894Z,16.90
2018-05-31T19:12:00.024Z,16.17
2018-05-31T19:14:26.123Z,14.77
2018-05-31T19:16:52.171Z,16.70
2018-05-31T19:19:24.200Z,15.00
2018-05-31T19:21:50.280Z,13.63
2018-05-31T19:24:22.337Z,14.83
2018-05-31T19:26:48.403Z,14.37
2018-05-31T19:29:14.482Z,13.80
2018-05-31T19:31:40.510Z,13.40
2018-05-31T19:34:06.550Z,13.93
2018-05-31T19:36:38.722Z,13.23
2018-05-31T19:39:04.893Z,13.57
2018-05-31T19:41:31.022Z,15.67
2018-05-31T19:44:03.022Z,17.77
2018-05-31T19:46:29.091Z,14.50
2018-05-31T19:48:55.102Z,14.00
2018-05-31T19:51:27.203Z,14.10
2018-05-31T19:53:53.294Z,14.20
2018-05-31T19:56:19.385Z,16.57
2018-05-31T19:58:51.804Z,15.77
2018-05-31T20:01:23.971Z,13.33
2018-05-31T20:03:50.089Z,15.13
2018-05-31T20:06:16.183Z,16.57
2018-05-31T20:08:42.226Z,15.73
2018-05-31T20:11:08.291Z,14.70
2018-05-31T20:13:34.325Z,17.37
2018-05-31T20:16:00.359Z,15.90
2018-05-31T20:18:26.402Z,18.70
2018-05-31T20:20:52.514Z,15.80
2018-05-31T20:23:18.526Z,19.13
2018-05-31T20:25:44.523Z,18.77
2018-05-31T20:28:10.661Z,19.23
2018-05-31T20:30:36.719Z,17.03
2018-05-31T20:33:02.722Z,18.47
2018-05-31T20:35:28.729Z,17.63
2018-05-31T20:37:54.908Z,18.27
2018-05-31T20:40:21.097Z,18.83
2018-05-31T20:42:47.410Z,18.10
2018-05-31T20:45:13.799Z,16.90
2018-05-31T20:47:39.882Z,22.70
2018-05-31T20:50:05.917Z,22.47
2018-05-31T20:52:31.963Z,19.17
2018-05-31T20:54:58.066Z,16.80
2018-05-31T20:57:24.143Z,21.30
2018-05-31T20:59:50.243Z,20.23
2018-05-31T21:02:16.237Z,18.70
2018-05-31T21:04:42.267Z,22.33
2018-05-31T21:07:08.301Z,20.10
2018-05-31T21:09:34.306Z,19.57
2018-05-31T21:12:00.322Z,19.70
2018-05-31T21:14:26.329Z,22.27
2018-05-31T21:16:52.342Z,23.93
2018-05-31T21:19:18.760Z,22.40
2018-05-31T21:21:44.808Z,23.47
2018-05-31T21:24:10.819Z,19.57
2018-05-31T21:26:36.920Z,24.33
2018-05-31T21:29:03.125Z,21.70
2018-05-31T21:31:29.325Z,22.80
2018-05-31T21:33:56.933Z,27.53
2018-05-31T21:36:23.033Z,23.17
2018-05-31T21:38:49.049Z,21.47
2018-05-31T21:41:18.773Z,24.40
2018-05-31T21:43:44.884Z,27.00
2018-05-31T21:46:11.081Z,30.47
2018-05-31T21:48:37.278Z,26.37
2018-05-31T21:51:03.299Z,28.67
2018-05-31T21:53:29.297Z,29.43
2018-05-31T21:55:56.045Z,27.27
2018-05-31T21:58:22.059Z,32.53
2018-05-31T22:00:54.136Z,28.50
2018-05-31T22:03:20.171Z,34.17
2018-05-31T22:05:46.194Z,33.50
2018-05-31T22:08:12.222Z,31.23
2018-05-31T22:10:40.866Z,30.10
2018-05-31T22:13:07.069Z,35.07
2018-05-31T22:16:42.272Z,32.67
2018-05-31T22:19:08.290Z,34.67
2018-05-31T22:21:34.306Z,27.00
2018-05-31T22:24:00.345Z,33.70
2018-05-31T22:26:26.370Z,32.30
2018-05-31T22:28:52.373Z,32.63
2018-05-31T22:31:18.411Z,30.17
2018-05-31T22:33:44.443Z,31.53
2018-05-31T22:36:10.440Z,30.70
2018-05-31T22:38:36.456Z,29.00
2018-05-31T22:41:02.496Z,36.60
2018-05-31T22:43:28.599Z,37.43
2018-05-31T22:45:54.597Z,37.40
2018-05-31T22:48:20.659Z,33.60
2018-05-31T22:50:46.701Z,31.93
2018-05-31T22:53:12.754Z,31.80
2018-05-31T22:55:38.749Z,35.73
2018-05-31T22:58:04.917Z,28.57
2018-05-31T23:00:31.549Z,30.03
2018-05-31T23:02:57.702Z,33.93
2018-05-31T23:05:24.351Z,40.10
2018-05-31T23:07:50.374Z,41.13
2018-05-31T23:10:16.405Z,40.10
2018-05-31T23:12:42.438Z,43.83
2018-05-31T23:15:08.452Z,46.03
2018-05-31T23:17:34.501Z,45.50
2018-05-31T23:20:00.530Z,42.00
2018-05-31T23:22:26.530Z,47.63
2018-05-31T23:24:52.535Z,46.90
2018-05-31T23:27:18.537Z,41.23
2018-05-31T23:29:44.563Z,39.97
2018-05-31T23:32:10.548Z,46.77
2018-05-31T23:34:36.554Z,46.70
2018-05-31T23:37:02.592Z,49.77
2018-05-31T23:39:28.599Z,47.13
2018-05-31T23:41:54.615Z,53.17
2018-05-31T23:44:20.609Z,63.90
2018-05-31T23:46:46.606Z,55.00
2018-05-31T23:49:12.605Z,49.00
2018-05-31T23:51:38.631Z,58.20
2018-05-31T23:54:04.706Z,54.70
2018-05-31T23:56:30.741Z,56.60
2018-05-31T23:58:56.737Z,66.70
